createdAt,value
2023-02-03T00:02:25.766Z,101814.31
2023-02-03T00:04:52.601Z,101816.00
2023-02-03T00:07:19.699Z,101816.66
2023-02-03T00:09:46.674Z,101813.63
2023-02-03T00:12:14.426Z,101822.59
2023-02-03T00:14:41.297Z,101816.13
2023-02-03T00:17:08.398Z,101828.19
2023-02-03T00:19:36.581Z,101806.84
2023-02-03T00:22:03.477Z,101816.28
2023-02-03T00:24:30.399Z,101816.28
2023-02-03T00:26:57.233Z,101822.22
2023-02-03T00:29:25.959Z,101828.16
2023-02-03T00:31:53.913Z,101829.00
2023-02-03T00:34:21.373Z,101822.53
2023-02-03T00:36:49.664Z,101834.78
2023-02-03T00:39:16.810Z,101829.81
2023-02-03T00:41:43.784Z,101826.19
2023-02-03T00:44:11.060Z,101827.81
2023-02-03T00:46:38.096Z,101819.22
2023-02-03T00:49:05.740Z,101837.13
2023-02-03T00:51:33.535Z,101819.91
2023-02-03T00:54:01.739Z,101814.97
2023-02-03T00:56:28.655Z,101808.84
2023-02-03T00:58:55.712Z,101802.72
2023-02-03T01:01:22.709Z,101785.19
2023-02-03T01:03:50.072Z,101793.94
2023-02-03T01:06:20.290Z,101793.94
2023-02-03T01:08:48.772Z,101797.41
2023-02-03T01:11:20.769Z,101789.47
2023-02-03T01:13:50.151Z,101801.41
2023-02-03T01:16:20.595Z,101793.47
2023-02-03T01:18:48.522Z,101789.16
2023-02-03T01:21:20.167Z,101781.22
2023-02-03T01:23:47.559Z,101794.81
2023-02-03T01:26:19.675Z,101784.22
2023-02-03T01:28:51.933Z,101759.72
2023-02-03T01:31:22.891Z,101751.47
2023-02-03T01:33:51.961Z,101767.16
2023-02-03T01:36:19.142Z,101745.81
2023-02-03T01:38:46.551Z,101756.56
2023-02-03T01:41:17.744Z,101744.81
2023-02-03T01:43:50.060Z,101727.75
2023-02-03T01:46:33.448Z,101723.16
2023-02-03T01:49:08.110Z,101716.84
2023-02-03T01:51:38.261Z,101723.31
2023-02-03T01:54:07.473Z,101718.00
2023-02-03T01:56:40.554Z,101716.38
2023-02-03T01:59:07.988Z,101717.66
2023-02-03T02:01:35.757Z,101709.41
2023-02-03T02:04:04.919Z,101707.41
2023-02-03T02:06:31.836Z,101715.34
2023-02-03T02:09:00.740Z,101727.59
2023-02-03T02:11:29.536Z,101711.06
2023-02-03T02:14:01.916Z,101705.28
2023-02-03T02:16:45.903Z,101720.34
2023-02-03T02:20:06.334Z,101709.94
2023-02-03T02:22:57.120Z,101714.72
2023-02-03T02:26:26.994Z,101728.16
2023-02-03T02:29:28.039Z,101732.47
2023-02-03T02:32:16.250Z,101727.28
2023-02-03T02:34:55.911Z,101716.38
2023-02-03T02:37:35.117Z,101717.03
2023-02-03T02:40:19.707Z,101716.84
2023-02-03T02:43:02.242Z,101692.38
2023-02-03T02:45:39.204Z,101695.84
2023-02-03T02:48:17.522Z,101682.94
2023-02-03T02:50:49.481Z,101687.25
2023-02-03T02:53:22.730Z,101695.84
2023-02-03T02:55:51.906Z,101683.25
2023-02-03T02:58:21.632Z,101668.34
2023-02-03T03:00:48.557Z,101658.41
2023-02-03T03:03:20.057Z,101656.78
2023-02-03T03:05:53.626Z,101654.78
2023-02-03T03:08:29.163Z,101652.97
2023-02-03T03:11:00.800Z,101657.09
2023-02-03T03:13:34.035Z,101664.50
2023-02-03T03:16:07.584Z,101661.34
2023-02-03T03:18:43.367Z,101660.50
2023-02-03T03:21:18.249Z,101661.34
2023-02-03T03:23:51.263Z,101654.22
2023-02-03T03:26:28.722Z,101661.13
2023-02-03T03:29:06.714Z,101651.56
2023-02-03T03:31:33.892Z,101641.81
2023-02-03T03:34:02.969Z,101630.84
2023-02-03T03:36:38.761Z,101631.47
2023-02-03T03:39:15.620Z,101634.97
2023-02-03T03:41:57.843Z,101620.25
2023-02-03T03:44:32.973Z,101616.63
2023-02-03T03:47:19.088Z,101625.53
2023-02-03T03:49:48.950Z,101629.22
2023-02-03T03:52:22.372Z,101638.13
2023-02-03T03:54:52.639Z,101626.56
2023-02-03T03:57:25.894Z,101637.81
2023-02-03T03:59:54.694Z,101643.09
2023-02-03T04:02:23.904Z,101644.72
2023-02-03T04:04:54.095Z,101649.22
2023-02-03T04:07:21.054Z,101651.69
2023-02-03T04:09:48.129Z,101641.91
2023-02-03T04:12:23.141Z,101650.03
2023-02-03T04:14:50.223Z,101651.19
2023-02-03T04:17:19.933Z,101652.84
2023-02-03T04:19:47.514Z,101650.03
2023-02-03T04:22:15.698Z,101638.63
2023-02-03T04:24:42.640Z,101645.56
2023-02-03T04:27:09.673Z,101627.84
2023-02-03T04:29:36.623Z,101625.19
2023-02-03T04:32:03.997Z,101619.06
2023-02-03T04:34:30.930Z,101628.84
2023-02-03T04:36:57.878Z,101624.91
2023-02-03T04:39:26.149Z,101615.19
2023-02-03T04:41:53.022Z,101623.66
2023-02-03T04:44:19.911Z,101610.41
2023-02-03T04:46:46.834Z,101584.97
2023-02-03T04:49:13.707Z,101588.31
2023-02-03T04:51:40.592Z,101575.25
2023-02-03T04:54:08.657Z,101575.41
2023-02-03T04:56:37.623Z,101572.94
2023-02-03T04:59:04.594Z,101576.13
2023-02-03T05:01:31.688Z,101569.53
2023-02-03T05:03:58.642Z,101574.84
2023-02-03T05:06:32.750Z,101572.50
2023-02-03T05:08:59.593Z,101570.84
2023-02-03T05:11:27.051Z,101570.50
2023-02-03T05:13:55.391Z,101587.66
2023-02-03T05:16:22.374Z,101581.84
2023-02-03T05:18:49.325Z,101587.66
2023-02-03T05:21:16.443Z,101592.41
2023-02-03T05:23:43.339Z,101584.13
2023-02-03T05:26:10.731Z,101587.09
2023-02-03T05:28:37.856Z,101590.19
2023-02-03T05:31:06.506Z,101593.47
2023-02-03T05:33:33.733Z,101590.81
2023-02-03T05:36:00.653Z,101583.56
2023-02-03T05:38:27.782Z,101579.69
2023-02-03T05:41:13.460Z,101574.25
2023-02-03T05:43:40.339Z,101572.59
2023-02-03T05:46:08.697Z,101567.47
2023-02-03T05:48:35.768Z,101572.28
2023-02-03T05:51:02.830Z,101578.59
2023-02-03T05:53:29.760Z,101573.66
2023-02-03T05:55:56.687Z,101566.72
2023-02-03T05:58:23.576Z,101573.66
2023-02-03T06:00:51.631Z,101565.06
2023-02-03T06:03:20.528Z,101567.22
2023-02-03T06:05:47.408Z,101561.78
2023-02-03T06:08:15.227Z,101564.25
2023-02-03T06:10:42.135Z,101548.34
2023-02-03T06:13:12.053Z,101550.19
2023-02-03T06:15:39.712Z,101563.13
2023-02-03T06:18:07.408Z,101556.88
2023-02-03T06:20:35.860Z,101551.31
2023-02-03T06:23:02.834Z,101551.66
2023-02-03T06:25:32.058Z,101546.53
2023-02-03T06:27:59.389Z,101539.13
2023-02-03T06:30:26.853Z,101522.94
2023-02-03T06:32:54.499Z,101534.34
2023-02-03T06:35:21.420Z,101528.22
2023-02-03T06:37:49.623Z,101533.91
2023-02-03T06:40:16.576Z,101511.06
2023-02-03T06:42:45.877Z,101519.19
2023-02-03T06:45:13.130Z,101526.31
2023-02-03T06:47:40.754Z,101524.94
2023-02-03T06:50:09.175Z,101529.06
2023-02-03T06:52:36.228Z,101512.00
2023-02-03T06:55:05.734Z,101514.66
2023-02-03T06:57:33.080Z,101516.63
2023-02-03T06:59:59.972Z,101496.72
2023-02-03T07:02:26.899Z,101497.66
2023-02-03T07:04:53.788Z,101493.66
2023-02-03T07:07:20.682Z,101487.19
2023-02-03T07:09:47.560Z,101477.06
2023-02-03T07:12:15.885Z,101490.59
2023-02-03T07:14:42.876Z,101480.09
2023-02-03T07:17:09.795Z,101490.78
2023-02-03T07:19:36.904Z,101494.75
2023-02-03T07:22:03.830Z,101483.66
2023-02-03T07:24:30.708Z,101472.66
2023-02-03T07:26:57.702Z,101472.13
2023-02-03T07:29:25.979Z,101478.09
2023-02-03T07:31:53.001Z,101473.22
2023-02-03T07:34:20.279Z,101484.81
2023-02-03T07:36:47.193Z,101475.53
2023-02-03T07:39:14.125Z,101487.19
2023-02-03T07:41:41.108Z,101485.03
2023-02-03T07:44:09.335Z,101498.72
2023-02-03T07:46:41.347Z,101501.84
2023-02-03T07:49:10.345Z,101487.41
2023-02-03T07:51:37.375Z,101489.03
2023-02-03T07:54:04.848Z,101476.06
2023-02-03T07:56:32.749Z,101481.00
2023-02-03T07:59:02.383Z,101485.31
2023-02-03T08:01:34.021Z,101493.88
2023-02-03T08:04:05.214Z,101499.47
2023-02-03T08:06:32.258Z,101498.44
2023-02-03T08:08:59.209Z,101505.59
2023-02-03T08:11:26.199Z,101497.44
2023-02-03T08:13:53.160Z,101499.75
2023-02-03T08:16:20.543Z,101493.06
2023-02-03T08:18:47.472Z,101493.13
2023-02-03T08:21:15.796Z,101493.59
2023-02-03T08:23:42.676Z,101487.09
2023-02-03T08:26:09.627Z,101503.81
2023-02-03T08:28:36.490Z,101503.03
2023-02-03T08:31:10.840Z,101514.41
2023-02-03T08:33:38.048Z,101505.09
2023-02-03T08:36:06.105Z,101507.94
2023-02-03T08:38:34.384Z,101515.72
2023-02-03T08:41:01.420Z,101513.69
2023-02-03T08:43:28.390Z,101510.03
2023-02-03T08:45:55.328Z,101520.28
2023-02-03T08:48:22.198Z,101528.06
2023-02-03T08:50:52.715Z,101529.69
2023-02-03T08:53:19.751Z,101537.44
2023-02-03T08:55:48.101Z,101536.44
2023-02-03T08:58:15.164Z,101555.00
2023-02-03T09:00:42.646Z,101537.44
2023-02-03T09:03:09.611Z,101555.00
2023-02-03T09:05:37.047Z,101552.38
2023-02-03T09:08:04.407Z,101580.53
2023-02-03T09:10:31.510Z,101625.72
2023-02-03T09:12:59.907Z,101589.97
2023-02-03T09:15:27.044Z,101598.88
2023-02-03T09:17:55.330Z,101614.94
2023-02-03T09:20:23.484Z,101599.50
2023-02-03T09:22:50.461Z,101609.16
2023-02-03T09:25:17.782Z,101603.56
2023-02-03T09:27:44.795Z,101610.88
2023-02-03T09:30:14.421Z,101615.34
2023-02-03T09:32:41.481Z,101619.66
2023-02-03T09:35:08.591Z,101611.50
2023-02-03T09:37:36.300Z,101622.75
2023-02-03T09:40:03.937Z,101624.41
2023-02-03T09:43:17.800Z,101625.22
2023-02-03T09:45:46.181Z,101612.91
2023-02-03T09:48:18.871Z,101617.31
2023-02-03T09:50:48.984Z,101616.22
2023-02-03T09:53:28.959Z,101631.19
2023-02-03T09:55:58.492Z,101630.09
2023-02-03T09:58:32.544Z,101636.50
2023-02-03T10:01:05.543Z,101646.03
2023-02-03T10:03:42.607Z,101650.81
2023-02-03T10:06:26.126Z,101655.03
2023-02-03T10:09:14.659Z,101660.47
2023-02-03T10:12:12.362Z,101655.78
2023-02-03T10:15:05.879Z,101662.16
2023-02-03T10:17:39.952Z,101669.78
2023-02-03T10:20:17.328Z,101677.31
2023-02-03T10:22:53.456Z,101686.97
2023-02-03T10:25:31.717Z,101672.56
2023-02-03T10:28:04.792Z,101689.19
2023-02-03T10:30:45.235Z,101686.13
2023-02-03T10:33:17.624Z,101686.38
2023-02-03T10:35:50.747Z,101689.28
2023-02-03T10:38:35.800Z,101686.22
2023-02-03T10:41:04.096Z,101682.78
2023-02-03T10:43:47.968Z,101685.78
2023-02-03T10:46:16.069Z,101684.97
2023-02-03T10:48:44.677Z,101691.44
2023-02-03T10:51:21.029Z,101700.53
2023-02-03T10:53:48.616Z,101700.56
2023-02-03T10:56:20.329Z,101711.66
2023-02-03T10:58:50.544Z,101720.06
2023-02-03T11:01:21.369Z,101715.31
2023-02-03T11:04:00.334Z,101721.41
2023-02-03T11:06:28.641Z,101708.28
2023-02-03T11:08:56.432Z,101709.88
2023-02-03T11:11:27.686Z,101709.88
2023-02-03T11:14:17.067Z,101699.34
2023-02-03T11:16:47.128Z,101739.53
2023-02-03T11:19:19.361Z,101714.13
2023-02-03T11:21:51.221Z,101722.22
2023-02-03T11:24:22.356Z,101729.03
2023-02-03T11:26:55.702Z,101731.22
2023-02-03T11:29:26.718Z,101733.75
2023-02-03T11:31:56.935Z,101727.63
2023-02-03T11:34:31.000Z,101726.59
2023-02-03T11:36:57.955Z,101724.69
2023-02-03T11:39:28.618Z,101741.81
2023-02-03T11:41:56.663Z,101749.75
2023-02-03T11:44:29.071Z,101749.44
2023-02-03T11:47:03.398Z,101747.28
2023-02-03T11:50:02.874Z,101759.44
2023-02-03T11:53:05.000Z,101752.34
2023-02-03T11:55:54.037Z,101741.28
2023-02-03T11:58:56.090Z,101742.00
2023-02-03T12:02:09.672Z,101741.75
2023-02-03T12:05:06.308Z,101753.81
2023-02-03T12:07:58.363Z,101759.13
2023-02-03T12:10:43.221Z,101756.97
2023-02-03T12:13:33.830Z,101762.09
2023-02-03T12:16:23.024Z,101762.91
2023-02-03T12:19:07.848Z,101770.53
2023-02-03T12:21:44.415Z,101776.47
2023-02-03T12:24:30.621Z,101762.19
2023-02-03T12:27:16.322Z,101783.88
2023-02-03T12:29:53.701Z,101772.25
2023-02-03T12:32:32.011Z,101763.50
2023-02-03T12:35:11.647Z,101766.78
2023-02-03T12:37:48.511Z,101790.66
2023-02-03T12:40:26.511Z,101771.91
2023-02-03T12:42:59.017Z,101783.25
2023-02-03T12:45:31.242Z,101773.81
2023-02-03T12:48:05.026Z,101784.19
2023-02-03T12:50:44.671Z,101786.56
2023-02-03T12:53:20.819Z,101786.69
2023-02-03T12:55:55.778Z,101790.75
2023-02-03T12:58:28.480Z,101779.38
2023-02-03T13:01:04.246Z,101771.31
2023-02-03T13:03:41.162Z,101781.31
2023-02-03T13:06:17.419Z,101786.00
2023-02-03T13:08:56.034Z,101797.81
2023-02-03T13:11:31.959Z,101793.69
2023-02-03T13:14:15.302Z,101798.38
2023-02-03T13:16:51.333Z,101793.75
2023-02-03T13:19:25.620Z,101801.28
2023-02-03T13:21:52.901Z,101779.56
2023-02-03T13:24:26.190Z,101798.25
2023-02-03T13:27:30.787Z,101803.72
2023-02-03T13:30:31.928Z,101813.06
2023-02-03T13:33:42.327Z,101822.75
2023-02-03T13:36:39.352Z,101824.75
2023-02-03T13:39:40.475Z,101827.09
2023-02-03T13:42:23.553Z,101837.69
2023-02-03T13:44:57.055Z,101844.63
2023-02-03T13:47:28.934Z,101843.00
2023-02-03T13:50:01.179Z,101833.75
2023-02-03T13:52:34.936Z,101842.72
2023-02-03T13:55:05.366Z,101848.66
2023-02-03T13:57:36.464Z,101862.94
2023-02-03T14:00:27.208Z,101863.94
2023-02-03T14:02:56.164Z,101867.56
2023-02-03T14:05:42.821Z,101864.00
2023-02-03T14:08:52.412Z,101867.06
2023-02-03T14:11:41.718Z,101868.06
2023-02-03T14:14:45.045Z,101870.25
2023-02-03T14:18:24.642Z,101878.09
2023-02-03T14:21:10.169Z,101900.09
2023-02-03T14:23:49.715Z,101908.88
2023-02-03T14:26:30.163Z,101905.78
2023-02-03T14:29:00.413Z,101908.78
2023-02-03T14:31:28.259Z,101918.22
2023-02-03T14:34:14.383Z,101911.00
2023-02-03T14:36:55.307Z,101913.97
2023-02-03T14:40:11.393Z,101921.63
2023-02-03T14:43:21.575Z,101931.56
2023-02-03T14:46:32.065Z,101938.22
2023-02-03T14:49:30.230Z,101939.88
2023-02-03T14:52:16.857Z,101951.31
2023-02-03T14:55:05.648Z,101950.66
2023-02-03T14:57:43.431Z,101951.81
2023-02-03T15:00:31.251Z,101950.16
2023-02-03T15:03:30.143Z,101951.34
2023-02-03T15:06:01.571Z,101950.50
2023-02-03T15:08:45.243Z,101949.88
2023-02-03T15:11:30.102Z,101960.63
2023-02-03T15:14:21.774Z,101958.47
2023-02-03T15:16:55.916Z,101965.78
2023-02-03T15:19:28.196Z,101975.88
2023-02-03T15:21:55.546Z,101970.44
2023-02-03T15:24:24.121Z,101992.28
2023-02-03T15:26:54.489Z,101985.31
2023-02-03T15:29:33.356Z,101990.97
2023-02-03T15:32:09.557Z,101983.69
2023-02-03T15:34:43.572Z,101994.28
2023-02-03T15:37:18.797Z,101982.00
2023-02-03T15:40:00.742Z,101994.13
2023-02-03T15:42:35.542Z,102005.53
2023-02-03T15:45:12.867Z,102001.75
2023-02-03T15:47:48.132Z,102001.09
2023-02-03T15:50:30.724Z,101999.63
2023-02-03T15:53:04.755Z,101997.94
2023-02-03T15:55:37.891Z,102003.25
2023-02-03T15:58:05.749Z,102001.56
2023-02-03T16:00:39.536Z,102019.31
2023-02-03T16:03:19.652Z,102010.88
2023-02-03T16:05:50.101Z,102017.16
2023-02-03T16:08:39.677Z,102020.63
2023-02-03T16:11:32.352Z,102021.94
2023-02-03T16:14:03.225Z,102027.06
2023-02-03T16:16:36.674Z,102010.03
2023-02-03T16:19:12.135Z,102025.75
2023-02-03T16:21:54.180Z,102035.66
2023-02-03T16:24:38.857Z,102041.78
2023-02-03T16:27:36.026Z,102051.91
2023-02-03T16:30:42.811Z,102053.91
2023-02-03T16:33:35.238Z,102068.44
2023-02-03T16:36:29.913Z,102040.31
2023-02-03T16:39:21.705Z,102050.06
2023-02-03T16:42:07.489Z,102044.78
2023-02-03T16:44:57.167Z,102051.06
2023-02-03T16:47:45.974Z,102072.41
2023-02-03T16:50:38.595Z,102072.41
2023-02-03T16:53:12.375Z,102079.69
2023-02-03T16:55:41.226Z,102079.69
2023-02-03T16:58:09.547Z,102077.72
2023-02-03T17:00:36.524Z,102080.34
2023-02-03T17:03:05.375Z,102077.72
2023-02-03T17:05:36.512Z,102081.50
2023-02-03T17:08:03.737Z,102083.31
2023-02-03T17:10:30.678Z,102078.03
2023-02-03T17:12:58.893Z,102082.34
2023-02-03T17:15:26.065Z,102076.03
2023-02-03T17:17:52.940Z,102087.63
2023-02-03T17:20:20.273Z,102085.13
2023-02-03T17:22:47.518Z,102080.84
2023-02-03T17:25:14.501Z,102089.63
2023-02-03T17:27:41.472Z,102096.56
2023-02-03T17:30:11.889Z,102105.34
2023-02-03T17:32:39.033Z,102097.56
2023-02-03T17:35:06.854Z,102105.50
2023-02-03T17:37:34.357Z,102107.31
2023-02-03T17:53:57.321Z,102149.63
2023-02-03T17:56:25.906Z,102155.75
2023-02-03T17:58:55.570Z,102150.09
2023-02-03T18:01:25.257Z,102158.69
2023-02-03T18:03:55.616Z,102170.22
2023-02-03T18:06:26.390Z,102180.63
2023-02-03T18:08:54.340Z,102185.38
2023-02-03T18:11:21.484Z,102191.31
2023-02-03T18:13:49.849Z,102186.34
2023-02-03T18:16:22.197Z,102192.94
2023-02-03T18:18:52.544Z,102201.84
2023-02-03T18:21:22.564Z,102188.94
2023-02-03T18:23:51.105Z,102211.22
2023-02-03T18:26:20.317Z,102201.78
2023-02-03T18:28:50.523Z,102205.44
2023-02-03T18:31:17.664Z,102219.63
2023-02-03T18:33:46.482Z,102225.59
2023-02-03T18:36:16.706Z,102231.56
2023-02-03T18:38:46.193Z,102232.91
2023-02-03T18:41:16.241Z,102235.41
2023-02-03T18:43:43.892Z,102239.25
2023-02-03T18:46:13.132Z,102236.28
2023-02-03T18:48:40.104Z,102254.81
2023-02-03T18:51:09.295Z,102243.41
2023-02-03T18:53:38.288Z,102235.59
2023-02-03T18:56:07.722Z,102246.16
2023-02-03T18:58:36.817Z,102244.84
2023-02-03T19:01:04.003Z,102246.81
2023-02-03T19:03:31.090Z,102249.75
2023-02-03T19:05:58.020Z,102268.28
2023-02-03T19:08:25.170Z,102261.00
2023-02-03T19:10:54.627Z,102268.94
2023-02-03T19:13:22.182Z,102273.25
2023-02-03T19:15:51.414Z,102282.88
2023-02-03T19:18:18.366Z,102280.22
2023-02-03T19:20:45.509Z,102285.19
2023-02-03T19:23:12.651Z,102299.91
2023-02-03T19:25:40.413Z,102312.16
2023-02-03T19:28:14.247Z,102311.31
2023-02-03T19:30:44.824Z,102319.44
2023-02-03T19:33:11.939Z,102319.44
2023-02-03T19:35:39.389Z,102329.84
2023-02-03T19:38:06.359Z,102339.47
2023-02-03T19:40:33.336Z,102337.78
2023-02-03T19:43:00.473Z,102328.88
2023-02-03T19:45:28.803Z,102336.81
2023-02-03T19:47:55.843Z,102347.69
2023-02-03T19:50:22.856Z,102343.38
2023-02-03T19:52:49.727Z,102345.03
2023-02-03T19:55:17.080Z,102351.16
2023-02-03T19:57:44.020Z,102356.28
2023-02-03T20:00:13.292Z,102364.22
2023-02-03T20:02:41.990Z,102375.66
2023-02-03T20:05:10.667Z,102368.69
2023-02-03T20:07:37.610Z,102369.53
2023-02-03T20:10:05.004Z,102366.19
2023-02-03T20:12:32.116Z,102368.19
2023-02-03T20:15:01.356Z,102368.19
2023-02-03T20:17:28.562Z,102376.09
2023-02-03T20:19:56.804Z,102380.41
2023-02-03T20:22:23.902Z,102380.41
2023-02-03T20:24:50.812Z,102398.63
2023-02-03T20:27:17.883Z,102395.00
2023-02-03T20:29:44.887Z,102411.56
2023-02-03T20:32:11.798Z,102411.56
2023-02-03T20:34:39.484Z,102404.28
2023-02-03T20:37:08.402Z,102399.84
2023-02-03T20:39:35.466Z,102418.47
2023-02-03T20:42:02.499Z,102424.78
2023-02-03T20:44:29.453Z,102421.13
2023-02-03T20:46:56.424Z,102436.31
2023-02-03T20:49:23.304Z,102436.31
2023-02-03T20:51:50.200Z,102431.50
2023-02-03T20:54:21.483Z,102431.66
2023-02-03T20:56:49.255Z,102451.00
2023-02-03T20:59:19.265Z,102458.94
2023-02-03T21:01:46.948Z,102442.53
2023-02-03T21:04:34.654Z,102435.72
2023-02-03T21:07:11.335Z,102449.13
2023-02-03T21:09:40.154Z,102448.94
2023-02-03T21:12:11.736Z,102450.63
2023-02-03T21:14:43.275Z,102460.06
2023-02-03T21:17:17.845Z,102453.09
2023-02-03T21:19:45.306Z,102456.44
2023-02-03T21:22:21.094Z,102453.09
2023-02-03T21:24:54.868Z,102461.88
2023-02-03T21:27:28.789Z,102459.06
2023-02-03T21:29:57.483Z,102456.13
2023-02-03T21:32:32.212Z,102465.03
2023-02-03T21:34:59.167Z,102456.44
2023-02-03T21:37:39.289Z,102468.00
2023-02-03T21:40:26.485Z,102472.59
2023-02-03T21:42:54.769Z,102458.22
2023-02-03T21:45:34.237Z,102462.56
2023-02-03T21:48:22.484Z,102466.16
2023-02-03T21:50:49.373Z,102469.81
2023-02-03T21:53:26.760Z,102468.47
2023-02-03T21:55:55.430Z,102477.19
2023-02-03T21:58:25.878Z,102480.16
2023-02-03T22:00:54.841Z,102482.66
2023-02-03T22:03:30.799Z,102485.75
2023-02-03T22:06:22.777Z,102484.41
2023-02-03T22:08:52.656Z,102493.97
2023-02-03T22:11:23.767Z,102509.00
2023-02-03T22:13:50.897Z,102517.78
2023-02-03T22:16:18.703Z,102547.53
2023-02-03T22:18:46.867Z,102550.19
2023-02-03T22:21:14.708Z,102560.91
2023-02-03T22:23:42.293Z,102567.34
2023-02-03T22:26:11.084Z,102562.63
2023-02-03T22:28:40.601Z,102566.00
2023-02-03T22:31:08.423Z,102577.16
2023-02-03T22:33:36.128Z,102589.41
2023-02-03T22:36:03.959Z,102594.13
2023-02-03T22:38:30.838Z,102597.22
2023-02-03T22:40:57.950Z,102623.91
2023-02-03T22:43:24.945Z,102619.91
2023-02-03T22:45:53.679Z,102623.66
2023-02-03T22:48:21.355Z,102633.41
2023-02-03T22:50:48.282Z,102633.13
2023-02-03T22:53:15.305Z,102630.09
2023-02-03T22:55:42.895Z,102640.38
2023-02-03T22:58:09.859Z,102640.13
2023-02-03T23:00:36.828Z,102652.06
2023-02-03T23:03:05.970Z,102664.84
2023-02-03T23:05:33.072Z,102667.22
2023-02-03T23:08:00.162Z,102673.75
2023-02-03T23:10:32.438Z,102675.97
2023-02-03T23:13:00.676Z,102685.97
2023-02-03T23:15:28.913Z,102694.19
2023-02-03T23:17:56.088Z,102702.38
2023-02-03T23:20:24.341Z,102708.59
2023-02-03T23:22:51.424Z,102707.22
2023-02-03T23:25:18.791Z,102716.50
2023-02-03T23:27:45.954Z,102717.75
2023-02-03T23:30:14.990Z,102728.72
2023-02-03T23:32:42.094Z,102730.91
2023-02-03T23:35:28.366Z,102734.81
2023-02-03T23:37:56.554Z,102733.38
2023-02-03T23:40:23.627Z,102746.56
2023-02-03T23:42:50.607Z,102750.06
2023-02-03T23:45:17.804Z,102769.22
2023-02-03T23:47:46.424Z,102769.94
2023-02-03T23:50:21.235Z,102764.53
2023-02-03T23:52:48.809Z,102771.47
2023-02-03T23:55:19.672Z,102777.56
2023-02-03T23:57:46.955Z,102782.00
